Fantasy — H3GS — position and weather

sailwx.info

Track history (hours):
 
Tides and Currents Weather Stations Pressure Air Temp Water Temp Dewpoint Dewpoint Depression Visibility Wind Speed Wind Dir Waves Ship Positions

Fantasy

Operator: Carnival Cruise Lines

Last reported at 2017-Nov-19 05:00 UTC. Time now 2017-Nov-20 05:51 UTC.
Position N 29°24' W 087°24'.

Type: Ship. MMSI: 353486000.

Wind from 230 at 38 knots

Barometer 1013.0 mb
Air temperature 22.0 ° C
Visibility: greater than 10.8 NM
Dewpoint 18.9 ° C
Water temperature 25.0 ° C

Date/timePositionNaut miles runAvg speedWind from/ knotsBaromVisibWave heightAir tempDewpointWater temp
2017-Nov-19 05:00N 29°24' W 087°24'30 1.2 230 / 381013.010.8 22.018.925.0
2017-Nov-18 04:00N 28°54' W 087°30'40017.4 110 / 101017.010.8 22.018.927.0
2017-Nov-17 05:00N 22°18' W 086°24'10316.8 020 / 231013.010.8 25.020.528.0
2017-Nov-16 22:51N 20°39' W 086°54'618.1
2017-Nov-16 22:30N 20°33' W 086°57'2 4.6
2017-Nov-16 22:00N 20°31' W 086°57'0 0.0
2017-Nov-16 21:28N 20°31' W 086°57'0 0.0
2017-Nov-16 20:58N 20°31' W 086°57'0 0.0
2017-Nov-16 20:28N 20°31' W 086°57'0 0.0
2017-Nov-16 20:00N 20°31' W 086°57'0 0.0
2017-Nov-16 19:30N 20°31' W 086°57'0 0.0
2017-Nov-16 19:00N 20°31' W 086°57'0 0.0
2017-Nov-16 18:30N 20°31' W 086°57'0 0.0
2017-Nov-16 18:00N 20°31' W 086°57'0 0.0
2017-Nov-16 17:29N 20°31' W 086°57'0 0.0
2017-Nov-16 16:56N 20°31' W 086°57'0 0.0
2017-Nov-16 16:26N 20°31' W 086°57'0 0.0
2017-Nov-16 15:59N 20°31' W 086°57'0 0.0
2017-Nov-16 15:28N 20°31' W 086°57'0 0.0
2017-Nov-16 14:58N 20°31' W 086°57'0 0.0
2017-Nov-16 14:28N 20°31' W 086°57'0 0.0
2017-Nov-16 13:59N 20°31' W 086°57'0 0.7
2017-Nov-16 13:30N 20°31' W 086°58'3 5.4
2017-Nov-16 13:00N 20°29' W 087°00'4 8.5
2017-Nov-16 12:30N 20°27' W 087°04'611.4
2017-Nov-16 11:58N 20°21' W 087°06'8812.6
2017-Nov-16 05:00N 18°54' W 087°18'213 8.5 040 / 151014.010.8 25.022.028.0
2017-Nov-15 04:00N 22°18' W 086°12'10915.5 050 / 291013.010.8 25.020.528.0
2017-Nov-14 21:00N 24°06' W 086°24'34319.1 050 / 301015.010.8 26.021.5
2017-Nov-14 03:00N 29°42' W 087°42'54710.5 050 / 301022.010.8 19.013.824.0
2017-Nov-11 23:00N 20°37' W 086°56'715.0
2017-Nov-11 22:31N 20°30' W 086°59'1 2.0
2017-Nov-11 21:53N 20°29' W 086°59'0 0.0
2017-Nov-11 21:29N 20°29' W 086°59'0 0.0
2017-Nov-11 20:59N 20°29' W 086°59'0 0.0
2017-Nov-11 20:28N 20°29' W 086°59'0 0.0
2017-Nov-11 19:58N 20°29' W 086°59'0 0.0
2017-Nov-11 19:25N 20°29' W 086°59'0 0.0
2017-Nov-11 18:58N 20°29' W 086°59'0 0.0
2017-Nov-11 18:30N 20°29' W 086°59'0 0.0
2017-Nov-11 18:00N 20°29' W 086°59'0 0.0
2017-Nov-11 17:27N 20°29' W 086°59'0 0.0
2017-Nov-11 17:00N 20°29' W 086°59'0 0.0
2017-Nov-11 16:23N 20°29' W 086°59'0 0.0
2017-Nov-11 15:59N 20°29' W 086°59'0 0.0
2017-Nov-11 15:29N 20°29' W 086°59'0 0.0
2017-Nov-11 14:59N 20°29' W 086°59'0 0.0
2017-Nov-11 14:29N 20°29' W 086°59'0 0.0
2017-Nov-11 13:58N 20°29' W 086°59'0 0.3
2017-Nov-11 13:30N 20°29' W 086°59'3 6.7
2017-Nov-11 13:00N 20°32' W 086°59'5 9.5
2017-Nov-11 12:30N 20°36' W 086°56'38416.3
2017-Nov-10 13:00N 27°00' W 086°54'   040 / 221018.010.8 21.016.128.0
Track history (hours):
 
Tides and Currents Weather Stations Pressure Air Temp Water Temp Dewpoint Dewpoint Depression Visibility Wind Speed Wind Dir Waves Ship Positions

Fantasy

Operator: Carnival Cruise Lines

Last reported at 2017-Nov-19 05:00 UTC. Time now 2017-Nov-20 05:51 UTC.
Position N 29°24' W 087°24'.

Type: Ship. MMSI: 353486000.

Wind from 230 at 38 knots

Barometer 1013.0 mb
Air temperature 22.0 ° C
Visibility: greater than 10.8 NM
Dewpoint 18.9 ° C
Water temperature 25.0 ° C

Date/timePositionNaut miles runAvg speedWind from/ knotsBaromVisibWave heightAir tempDewpointWater temp
2017-Nov-19 05:00N 29°24' W 087°24'30 1.2 230 / 381013.010.8 22.018.925.0
2017-Nov-18 04:00N 28°54' W 087°30'40017.4 110 / 101017.010.8 22.018.927.0
2017-Nov-17 05:00N 22°18' W 086°24'10316.8 020 / 231013.010.8 25.020.528.0
2017-Nov-16 22:51N 20°39' W 086°54'618.1
2017-Nov-16 22:30N 20°33' W 086°57'2 4.6
2017-Nov-16 22:00N 20°31' W 086°57'0 0.0
2017-Nov-16 21:28N 20°31' W 086°57'0 0.0
2017-Nov-16 20:58N 20°31' W 086°57'0 0.0
2017-Nov-16 20:28N 20°31' W 086°57'0 0.0
2017-Nov-16 20:00N 20°31' W 086°57'0 0.0
2017-Nov-16 19:30N 20°31' W 086°57'0 0.0
2017-Nov-16 19:00N 20°31' W 086°57'0 0.0
2017-Nov-16 18:30N 20°31' W 086°57'0 0.0
2017-Nov-16 18:00N 20°31' W 086°57'0 0.0
2017-Nov-16 17:29N 20°31' W 086°57'0 0.0
2017-Nov-16 16:56N 20°31' W 086°57'0 0.0
2017-Nov-16 16:26N 20°31' W 086°57'0 0.0
2017-Nov-16 15:59N 20°31' W 086°57'0 0.0
2017-Nov-16 15:28N 20°31' W 086°57'0 0.0
2017-Nov-16 14:58N 20°31' W 086°57'0 0.0
2017-Nov-16 14:28N 20°31' W 086°57'0 0.0
2017-Nov-16 13:59N 20°31' W 086°57'0 0.7
2017-Nov-16 13:30N 20°31' W 086°58'3 5.4
2017-Nov-16 13:00N 20°29' W 087°00'4 8.5
2017-Nov-16 12:30N 20°27' W 087°04'611.4
2017-Nov-16 11:58N 20°21' W 087°06'8812.6
2017-Nov-16 05:00N 18°54' W 087°18'213 8.5 040 / 151014.010.8 25.022.028.0
2017-Nov-15 04:00N 22°18' W 086°12'10915.5 050 / 291013.010.8 25.020.528.0
2017-Nov-14 21:00N 24°06' W 086°24'34319.1 050 / 301015.010.8 26.021.5
2017-Nov-14 03:00N 29°42' W 087°42'54710.5 050 / 301022.010.8 19.013.824.0
2017-Nov-11 23:00N 20°37' W 086°56'715.0
2017-Nov-11 22:31N 20°30' W 086°59'1 2.0
2017-Nov-11 21:53N 20°29' W 086°59'0 0.0
2017-Nov-11 21:29N 20°29' W 086°59'0 0.0
2017-Nov-11 20:59N 20°29' W 086°59'0 0.0
2017-Nov-11 20:28N 20°29' W 086°59'0 0.0
2017-Nov-11 19:58N 20°29' W 086°59'0 0.0
2017-Nov-11 19:25N 20°29' W 086°59'0 0.0
2017-Nov-11 18:58N 20°29' W 086°59'0 0.0
2017-Nov-11 18:30N 20°29' W 086°59'0 0.0
2017-Nov-11 18:00N 20°29' W 086°59'0 0.0
2017-Nov-11 17:27N 20°29' W 086°59'0 0.0
2017-Nov-11 17:00N 20°29' W 086°59'0 0.0
2017-Nov-11 16:23N 20°29' W 086°59'0 0.0
2017-Nov-11 15:59N 20°29' W 086°59'0 0.0
2017-Nov-11 15:29N 20°29' W 086°59'0 0.0
2017-Nov-11 14:59N 20°29' W 086°59'0 0.0
2017-Nov-11 14:29N 20°29' W 086°59'0 0.0
2017-Nov-11 13:58N 20°29' W 086°59'0 0.3
2017-Nov-11 13:30N 20°29' W 086°59'3 6.7
2017-Nov-11 13:00N 20°32' W 086°59'5 9.5
2017-Nov-11 12:30N 20°36' W 086°56'38416.3
2017-Nov-10 13:00N 27°00' W 086°54'   040 / 221018.010.8 21.016.128.0

Dump ship's entire track history